sensor_id;sensor_type;location;lat;lon;timestamp;P1;durP1;ratioP1;P2;durP2;ratioP2
10029;SDS011;5055;52.054;8.524;2023-04-03T00:01:21;0.67;;;0.67;;
10029;SDS011;5055;52.054;8.524;2023-04-03T00:03:49;0.73;;;0.73;;
10029;SDS011;5055;52.054;8.524;2023-04-03T00:06:18;0.50;;;0.50;;
10029;SDS011;5055;52.054;8.524;2023-04-03T00:08:47;0.40;;;0.40;;
10029;SDS011;5055;52.054;8.524;2023-04-03T00:11:15;0.90;;;0.90;;
10029;SDS011;5055;52.054;8.524;2023-04-03T00:13:44;0.70;;;0.70;;
10029;SDS011;5055;52.054;8.524;2023-04-03T00:16:14;0.50;;;0.50;;
10029;SDS011;5055;52.054;8.524;2023-04-03T00:18:42;0.63;;;0.63;;
10029;SDS011;5055;52.054;8.524;2023-04-03T00:21:12;0.60;;;0.60;;
10029;SDS011;5055;52.054;8.524;2023-04-03T00:23:42;0.70;;;0.70;;
10029;SDS011;5055;52.054;8.524;2023-04-03T00:26:10;0.50;;;0.50;;
10029;SDS011;5055;52.054;8.524;2023-04-03T00:28:39;0.80;;;0.80;;
10029;SDS011;5055;52.054;8.524;2023-04-03T00:31:07;0.87;;;0.87;;
10029;SDS011;5055;52.054;8.524;2023-04-03T00:33:37;0.70;;;0.70;;
10029;SDS011;5055;52.054;8.524;2023-04-03T00:36:06;0.70;;;0.70;;
10029;SDS011;5055;52.054;8.524;2023-04-03T00:38:35;0.57;;;0.57;;
10029;SDS011;5055;52.054;8.524;2023-04-03T00:41:04;0.43;;;0.43;;
10029;SDS011;5055;52.054;8.524;2023-04-03T00:43:36;0.50;;;0.50;;
10029;SDS011;5055;52.054;8.524;2023-04-03T00:46:04;0.43;;;0.43;;
10029;SDS011;5055;52.054;8.524;2023-04-03T00:48:34;0.83;;;0.83;;
10029;SDS011;5055;52.054;8.524;2023-04-03T00:51:07;0.60;;;0.60;;
10029;SDS011;5055;52.054;8.524;2023-04-03T00:53:41;0.70;;;0.70;;
10029;SDS011;5055;52.054;8.524;2023-04-03T00:56:13;0.77;;;0.77;;
10029;SDS011;5055;52.054;8.524;2023-04-03T00:58:46;0.80;;;0.80;;
10029;SDS011;5055;52.054;8.524;2023-04-03T01:01:19;0.73;;;0.73;;
10029;SDS011;5055;52.054;8.524;2023-04-03T01:03:51;0.47;;;0.47;;
10029;SDS011;5055;52.054;8.524;2023-04-03T01:06:21;0.60;;;0.60;;
10029;SDS011;5055;52.054;8.524;2023-04-03T01:08:53;0.80;;;0.80;;
10029;SDS011;5055;52.054;8.524;2023-04-03T01:11:23;0.60;;;0.60;;
10029;SDS011;5055;52.054;8.524;2023-04-03T01:13:51;0.70;;;0.70;;
10029;SDS011;5055;52.054;8.524;2023-04-03T01:16:21;0.67;;;0.67;;
10029;SDS011;5055;52.054;8.524;2023-04-03T01:18:49;0.80;;;0.80;;
10029;SDS011;5055;52.054;8.524;2023-04-03T01:24:32;0.60;;;0.60;;
10029;SDS011;5055;52.054;8.524;2023-04-03T01:27:03;0.70;;;0.70;;
10029;SDS011;5055;52.054;8.524;2023-04-03T01:29:33;0.50;;;0.50;;
10029;SDS011;5055;52.054;8.524;2023-04-03T01:32:03;0.90;;;0.90;;
10029;SDS011;5055;52.054;8.524;2023-04-03T01:34:33;0.50;;;0.50;;
10029;SDS011;5055;52.054;8.524;2023-04-03T01:37:01;0.53;;;0.53;;
10029;SDS011;5055;52.054;8.524;2023-04-03T01:39:30;0.70;;;0.70;;
10029;SDS011;5055;52.054;8.524;2023-04-03T01:41:58;0.60;;;0.60;;
10029;SDS011;5055;52.054;8.524;2023-04-03T01:44:27;0.57;;;0.57;;
10029;SDS011;5055;52.054;8.524;2023-04-03T01:46:55;0.60;;;0.60;;
10029;SDS011;5055;52.054;8.524;2023-04-03T01:49:28;0.60;;;0.60;;
10029;SDS011;5055;52.054;8.524;2023-04-03T01:51:56;0.53;;;0.53;;
10029;SDS011;5055;52.054;8.524;2023-04-03T01:54:25;0.60;;;0.60;;
10029;SDS011;5055;52.054;8.524;2023-04-03T01:56:53;0.60;;;0.60;;
10029;SDS011;5055;52.054;8.524;2023-04-03T01:59:22;0.50;;;0.50;;
10029;SDS011;5055;52.054;8.524;2023-04-03T02:01:50;0.50;;;0.50;;
10029;SDS011;5055;52.054;8.524;2023-04-03T02:04:18;0.60;;;0.60;;
10029;SDS011;5055;52.054;8.524;2023-04-03T02:06:48;0.40;;;0.40;;
10029;SDS011;5055;52.054;8.524;2023-04-03T02:09:17;0.90;;;0.90;;
10029;SDS011;5055;52.054;8.524;2023-04-03T02:11:45;0.70;;;0.70;;
10029;SDS011;5055;52.054;8.524;2023-04-03T02:14:13;0.60;;;0.60;;
10029;SDS011;5055;52.054;8.524;2023-04-03T02:16:42;0.60;;;0.60;;
10029;SDS011;5055;52.054;8.524;2023-04-03T02:19:10;0.50;;;0.50;;
10029;SDS011;5055;52.054;8.524;2023-04-03T02:21:39;0.77;;;0.77;;
10029;SDS011;5055;52.054;8.524;2023-04-03T02:24:15;0.80;;;0.80;;
10029;SDS011;5055;52.054;8.524;2023-04-03T02:26:43;0.77;;;0.77;;
10029;SDS011;5055;52.054;8.524;2023-04-03T02:29:12;0.60;;;0.60;;
10029;SDS011;5055;52.054;8.524;2023-04-03T02:31:44;0.80;;;0.80;;
10029;SDS011;5055;52.054;8.524;2023-04-03T02:34:12;0.70;;;0.70;;
10029;SDS011;5055;52.054;8.524;2023-04-03T02:36:41;0.50;;;0.50;;
10029;SDS011;5055;52.054;8.524;2023-04-03T02:39:09;0.80;;;0.80;;
10029;SDS011;5055;52.054;8.524;2023-04-03T02:41:39;0.87;;;0.87;;
10029;SDS011;5055;52.054;8.524;2023-04-03T02:44:11;0.80;;;0.80;;
10029;SDS011;5055;52.054;8.524;2023-04-03T02:46:40;0.70;;;0.70;;
10029;SDS011;5055;52.054;8.524;2023-04-03T02:49:09;0.80;;;0.80;;
10029;SDS011;5055;52.054;8.524;2023-04-03T02:51:37;0.70;;;0.70;;
10029;SDS011;5055;52.054;8.524;2023-04-03T02:54:05;0.50;;;0.50;;
10029;SDS011;5055;52.054;8.524;2023-04-03T02:56:34;0.70;;;0.70;;
10029;SDS011;5055;52.054;8.524;2023-04-03T02:59:04;0.70;;;0.70;;
10029;SDS011;5055;52.054;8.524;2023-04-03T03:01:33;0.53;;;0.53;;
10029;SDS011;5055;52.054;8.524;2023-04-03T03:04:02;0.60;;;0.60;;
10029;SDS011;5055;52.054;8.524;2023-04-03T03:06:30;0.50;;;0.50;;
10029;SDS011;5055;52.054;8.524;2023-04-03T03:08:59;0.60;;;0.60;;
10029;SDS011;5055;52.054;8.524;2023-04-03T03:11:28;0.97;;;0.97;;
10029;SDS011;5055;52.054;8.524;2023-04-03T03:13:57;0.50;;;0.50;;
10029;SDS011;5055;52.054;8.524;2023-04-03T03:16:27;0.60;;;0.60;;
10029;SDS011;5055;52.054;8.524;2023-04-03T03:18:55;0.93;;;0.93;;
10029;SDS011;5055;52.054;8.524;2023-04-03T03:21:24;0.70;;;0.70;;
10029;SDS011;5055;52.054;8.524;2023-04-03T03:23:53;0.67;;;0.67;;
10029;SDS011;5055;52.054;8.524;2023-04-03T03:26:21;0.40;;;0.40;;
10029;SDS011;5055;52.054;8.524;2023-04-03T03:28:50;0.67;;;0.67;;
10029;SDS011;5055;52.054;8.524;2023-04-03T03:31:18;0.47;;;0.47;;
10029;SDS011;5055;52.054;8.524;2023-04-03T03:33:48;0.63;;;0.63;;
10029;SDS011;5055;52.054;8.524;2023-04-03T03:36:16;0.53;;;0.53;;
10029;SDS011;5055;52.054;8.524;2023-04-03T03:38:45;0.90;;;0.90;;
10029;SDS011;5055;52.054;8.524;2023-04-03T03:41:13;0.83;;;0.83;;
10029;SDS011;5055;52.054;8.524;2023-04-03T03:43:42;0.90;;;0.90;;
10029;SDS011;5055;52.054;8.524;2023-04-03T03:46:10;0.60;;;0.60;;
10029;SDS011;5055;52.054;8.524;2023-04-03T03:48:38;0.70;;;0.70;;
10029;SDS011;5055;52.054;8.524;2023-04-03T03:51:08;0.50;;;0.50;;
10029;SDS011;5055;52.054;8.524;2023-04-03T03:53:37;0.73;;;0.73;;
10029;SDS011;5055;52.054;8.524;2023-04-03T03:56:06;0.90;;;0.90;;
10029;SDS011;5055;52.054;8.524;2023-04-03T03:58:34;0.77;;;0.77;;
10029;SDS011;5055;52.054;8.524;2023-04-03T04:01:05;0.80;;;0.80;;
10029;SDS011;5055;52.054;8.524;2023-04-03T04:03:45;0.60;;;0.60;;
10029;SDS011;5055;52.054;8.524;2023-04-03T04:06:15;0.50;;;0.50;;
10029;SDS011;5055;52.054;8.524;2023-04-03T04:08:44;0.53;;;0.53;;
10029;SDS011;5055;52.054;8.524;2023-04-03T04:11:12;0.70;;;0.70;;
10029;SDS011;5055;52.054;8.524;2023-04-03T04:13:41;0.67;;;0.67;;
10029;SDS011;5055;52.054;8.524;2023-04-03T04:16:09;0.80;;;0.80;;
10029;SDS011;5055;52.054;8.524;2023-04-03T04:18:37;0.70;;;0.70;;
10029;SDS011;5055;52.054;8.524;2023-04-03T04:21:06;0.80;;;0.80;;
10029;SDS011;5055;52.054;8.524;2023-04-03T04:23:35;0.60;;;0.60;;
10029;SDS011;5055;52.054;8.524;2023-04-03T04:26:04;0.50;;;0.50;;
10029;SDS011;5055;52.054;8.524;2023-04-03T04:28:32;0.83;;;0.83;;
10029;SDS011;5055;52.054;8.524;2023-04-03T04:31:00;0.60;;;0.60;;
10029;SDS011;5055;52.054;8.524;2023-04-03T04:33:29;0.63;;;0.63;;
10029;SDS011;5055;52.054;8.524;2023-04-03T04:35:57;1.27;;;1.27;;
10029;SDS011;5055;52.054;8.524;2023-04-03T04:38:26;0.70;;;0.70;;
10029;SDS011;5055;52.054;8.524;2023-04-03T04:40:56;0.80;;;0.80;;
10029;SDS011;5055;52.054;8.524;2023-04-03T04:43:24;0.83;;;0.83;;
10029;SDS011;5055;52.054;8.524;2023-04-03T04:46:00;0.57;;;0.57;;
10029;SDS011;5055;52.054;8.524;2023-04-03T04:48:29;0.70;;;0.70;;
10029;SDS011;5055;52.054;8.524;2023-04-03T04:51:01;0.57;;;0.57;;
10029;SDS011;5055;52.054;8.524;2023-04-03T04:53:36;0.53;;;0.53;;
10029;SDS011;5055;52.054;8.524;2023-04-03T04:56:06;0.90;;;0.90;;
10029;SDS011;5055;52.054;8.524;2023-04-03T04:58:38;0.57;;;0.57;;
10029;SDS011;5055;52.054;8.524;2023-04-03T05:01:09;0.50;;;0.50;;
10029;SDS011;5055;52.054;8.524;2023-04-03T05:03:38;1.03;;;1.03;;
10029;SDS011;5055;52.054;8.524;2023-04-03T05:06:07;0.60;;;0.60;;
10029;SDS011;5055;52.054;8.524;2023-04-03T05:08:38;0.47;;;0.47;;
10029;SDS011;5055;52.054;8.524;2023-04-03T05:11:08;0.40;;;0.40;;
10029;SDS011;5055;52.054;8.524;2023-04-03T05:13:36;0.93;;;0.93;;
10029;SDS011;5055;52.054;8.524;2023-04-03T05:16:05;0.50;;;0.50;;
10029;SDS011;5055;52.054;8.524;2023-04-03T05:18:33;0.60;;;0.60;;
10029;SDS011;5055;52.054;8.524;2023-04-03T05:21:02;0.70;;;0.70;;
10029;SDS011;5055;52.054;8.524;2023-04-03T05:23:31;0.53;;;0.53;;
10029;SDS011;5055;52.054;8.524;2023-04-03T05:25:59;0.70;;;0.70;;
10029;SDS011;5055;52.054;8.524;2023-04-03T05:28:29;0.90;;;0.90;;
10029;SDS011;5055;52.054;8.524;2023-04-03T05:30:58;0.77;;;0.77;;
10029;SDS011;5055;52.054;8.524;2023-04-03T05:33:26;0.67;;;0.67;;
10029;SDS011;5055;52.054;8.524;2023-04-03T05:35:55;0.77;;;0.77;;
10029;SDS011;5055;52.054;8.524;2023-04-03T05:38:24;0.50;;;0.50;;
10029;SDS011;5055;52.054;8.524;2023-04-03T05:40:52;0.90;;;0.90;;
10029;SDS011;5055;52.054;8.524;2023-04-03T05:43:20;0.80;;;0.80;;
10029;SDS011;5055;52.054;8.524;2023-04-03T05:45:50;0.50;;;0.50;;
10029;SDS011;5055;52.054;8.524;2023-04-03T05:48:19;0.80;;;0.80;;
10029;SDS011;5055;52.054;8.524;2023-04-03T05:50:48;0.70;;;0.70;;
10029;SDS011;5055;52.054;8.524;2023-04-03T05:53:17;0.63;;;0.63;;
10029;SDS011;5055;52.054;8.524;2023-04-03T05:55:49;0.70;;;0.70;;
10029;SDS011;5055;52.054;8.524;2023-04-03T05:58:17;0.83;;;0.83;;
10029;SDS011;5055;52.054;8.524;2023-04-03T06:00:45;0.43;;;0.43;;
10029;SDS011;5055;52.054;8.524;2023-04-03T06:03:19;0.70;;;0.70;;
10029;SDS011;5055;52.054;8.524;2023-04-03T06:05:48;0.60;;;0.60;;
10029;SDS011;5055;52.054;8.524;2023-04-03T06:08:16;1.07;;;1.07;;
10029;SDS011;5055;52.054;8.524;2023-04-03T06:10:45;0.50;;;0.50;;
10029;SDS011;5055;52.054;8.524;2023-04-03T06:13:14;0.50;;;0.50;;
10029;SDS011;5055;52.054;8.524;2023-04-03T06:15:42;0.77;;;0.77;;
10029;SDS011;5055;52.054;8.524;2023-04-03T06:18:10;0.80;;;0.80;;
10029;SDS011;5055;52.054;8.524;2023-04-03T06:20:40;0.47;;;0.47;;
10029;SDS011;5055;52.054;8.524;2023-04-03T06:23:08;0.60;;;0.60;;
10029;SDS011;5055;52.054;8.524;2023-04-03T06:25:37;0.57;;;0.57;;
10029;SDS011;5055;52.054;8.524;2023-04-03T06:28:06;0.53;;;0.53;;
10029;SDS011;5055;52.054;8.524;2023-04-03T06:30:36;0.40;;;0.40;;
10029;SDS011;5055;52.054;8.524;2023-04-03T06:33:05;0.60;;;0.60;;
10029;SDS011;5055;52.054;8.524;2023-04-03T06:35:33;0.60;;;0.60;;
10029;SDS011;5055;52.054;8.524;2023-04-03T06:38:04;0.60;;;0.60;;
10029;SDS011;5055;52.054;8.524;2023-04-03T06:40:35;0.60;;;0.60;;
10029;SDS011;5055;52.054;8.524;2023-04-03T06:43:05;0.77;;;0.77;;
10029;SDS011;5055;52.054;8.524;2023-04-03T06:45:33;0.73;;;0.73;;
10029;SDS011;5055;52.054;8.524;2023-04-03T06:48:03;0.50;;;0.50;;
10029;SDS011;5055;52.054;8.524;2023-04-03T06:50:32;0.60;;;0.60;;
10029;SDS011;5055;52.054;8.524;2023-04-03T06:53:00;0.80;;;0.80;;
10029;SDS011;5055;52.054;8.524;2023-04-03T06:55:30;0.60;;;0.60;;
10029;SDS011;5055;52.054;8.524;2023-04-03T06:57:58;0.70;;;0.70;;
10029;SDS011;5055;52.054;8.524;2023-04-03T07:00:27;0.80;;;0.80;;
10029;SDS011;5055;52.054;8.524;2023-04-03T07:02:55;0.80;;;0.80;;
10029;SDS011;5055;52.054;8.524;2023-04-03T07:05:24;0.50;;;0.50;;
10029;SDS011;5055;52.054;8.524;2023-04-03T07:07:52;0.80;;;0.80;;
10029;SDS011;5055;52.054;8.524;2023-04-03T07:10:21;0.40;;;0.40;;
10029;SDS011;5055;52.054;8.524;2023-04-03T07:12:50;0.60;;;0.60;;
10029;SDS011;5055;52.054;8.524;2023-04-03T07:15:19;0.50;;;0.50;;
10029;SDS011;5055;52.054;8.524;2023-04-03T07:17:48;0.40;;;0.40;;
10029;SDS011;5055;52.054;8.524;2023-04-03T07:20:16;0.50;;;0.50;;
10029;SDS011;5055;52.054;8.524;2023-04-03T07:22:45;0.30;;;0.30;;
10029;SDS011;5055;52.054;8.524;2023-04-03T07:25:13;0.73;;;0.73;;
10029;SDS011;5055;52.054;8.524;2023-04-03T07:27:42;0.40;;;0.40;;
10029;SDS011;5055;52.054;8.524;2023-04-03T07:30:12;0.50;;;0.50;;
10029;SDS011;5055;52.054;8.524;2023-04-03T07:32:41;0.50;;;0.50;;
10029;SDS011;5055;52.054;8.524;2023-04-03T07:35:10;0.60;;;0.60;;
10029;SDS011;5055;52.054;8.524;2023-04-03T07:37:38;0.40;;;0.40;;
10029;SDS011;5055;52.054;8.524;2023-04-03T07:40:07;0.40;;;0.40;;
10029;SDS011;5055;52.054;8.524;2023-04-03T07:42:36;0.40;;;0.40;;
10029;SDS011;5055;52.054;8.524;2023-04-03T07:45:05;0.57;;;0.57;;
10029;SDS011;5055;52.054;8.524;2023-04-03T07:47:36;0.70;;;0.70;;
10029;SDS011;5055;52.054;8.524;2023-04-03T07:50:05;0.50;;;0.50;;
10029;SDS011;5055;52.054;8.524;2023-04-03T07:52:34;0.60;;;0.60;;
10029;SDS011;5055;52.054;8.524;2023-04-03T07:55:04;0.40;;;0.40;;
10029;SDS011;5055;52.054;8.524;2023-04-03T07:57:32;0.40;;;0.40;;
10029;SDS011;5055;52.054;8.524;2023-04-03T08:00:01;0.50;;;0.50;;
10029;SDS011;5055;52.054;8.524;2023-04-03T08:02:31;0.53;;;0.53;;
10029;SDS011;5055;52.054;8.524;2023-04-03T08:05:00;0.40;;;0.40;;
10029;SDS011;5055;52.054;8.524;2023-04-03T08:07:29;0.50;;;0.50;;
10029;SDS011;5055;52.054;8.524;2023-04-03T08:09:57;0.50;;;0.50;;
10029;SDS011;5055;52.054;8.524;2023-04-03T08:12:25;0.40;;;0.40;;
10029;SDS011;5055;52.054;8.524;2023-04-03T08:14:54;0.43;;;0.43;;
10029;SDS011;5055;52.054;8.524;2023-04-03T08:17:23;0.40;;;0.40;;
10029;SDS011;5055;52.054;8.524;2023-04-03T08:19:51;0.50;;;0.50;;
10029;SDS011;5055;52.054;8.524;2023-04-03T08:22:21;0.40;;;0.40;;
10029;SDS011;5055;52.054;8.524;2023-04-03T08:24:50;0.40;;;0.40;;
10029;SDS011;5055;52.054;8.524;2023-04-03T08:27:25;0.43;;;0.43;;
10029;SDS011;5055;52.054;8.524;2023-04-03T08:29:53;0.50;;;0.50;;
10029;SDS011;5055;52.054;8.524;2023-04-03T08:32:23;0.40;;;0.40;;
10029;SDS011;5055;52.054;8.524;2023-04-03T08:34:52;0.30;;;0.30;;
10029;SDS011;5055;52.054;8.524;2023-04-03T08:37:22;0.40;;;0.40;;
10029;SDS011;5055;52.054;8.524;2023-04-03T08:39:50;0.50;;;0.50;;
10029;SDS011;5055;52.054;8.524;2023-04-03T08:42:26;0.47;;;0.47;;
10029;SDS011;5055;52.054;8.524;2023-04-03T08:45:05;0.40;;;0.40;;
10029;SDS011;5055;52.054;8.524;2023-04-03T08:47:40;0.50;;;0.50;;
10029;SDS011;5055;52.054;8.524;2023-04-03T08:50:13;0.40;;;0.40;;
10029;SDS011;5055;52.054;8.524;2023-04-03T08:52:47;0.50;;;0.50;;
10029;SDS011;5055;52.054;8.524;2023-04-03T08:55:22;0.40;;;0.40;;
10029;SDS011;5055;52.054;8.524;2023-04-03T08:57:54;0.40;;;0.40;;
10029;SDS011;5055;52.054;8.524;2023-04-03T09:00:29;0.40;;;0.40;;
10029;SDS011;5055;52.054;8.524;2023-04-03T09:03:02;0.40;;;0.40;;
10029;SDS011;5055;52.054;8.524;2023-04-03T09:05:33;0.40;;;0.40;;
10029;SDS011;5055;52.054;8.524;2023-04-03T09:08:14;0.40;;;0.40;;
10029;SDS011;5055;52.054;8.524;2023-04-03T09:10:50;0.40;;;0.40;;
10029;SDS011;5055;52.054;8.524;2023-04-03T09:13:24;0.50;;;0.50;;
10029;SDS011;5055;52.054;8.524;2023-04-03T09:16:00;0.40;;;0.40;;
10029;SDS011;5055;52.054;8.524;2023-04-03T09:18:35;0.50;;;0.50;;
10029;SDS011;5055;52.054;8.524;2023-04-03T09:21:12;0.60;;;0.60;;
10029;SDS011;5055;52.054;8.524;2023-04-03T09:23:49;0.47;;;0.47;;
10029;SDS011;5055;52.054;8.524;2023-04-03T09:26:19;0.40;;;0.40;;
10029;SDS011;5055;52.054;8.524;2023-04-03T09:28:52;0.50;;;0.50;;
10029;SDS011;5055;52.054;8.524;2023-04-03T09:31:25;0.40;;;0.40;;
10029;SDS011;5055;52.054;8.524;2023-04-03T09:33:56;0.50;;;0.50;;
10029;SDS011;5055;52.054;8.524;2023-04-03T09:39:15;0.40;;;0.40;;
10029;SDS011;5055;52.054;8.524;2023-04-03T09:41:54;0.50;;;0.50;;
10029;SDS011;5055;52.054;8.524;2023-04-03T09:44:25;0.50;;;0.50;;
10029;SDS011;5055;52.054;8.524;2023-04-03T09:46:55;0.50;;;0.50;;
10029;SDS011;5055;52.054;8.524;2023-04-03T09:49:23;0.40;;;0.40;;
10029;SDS011;5055;52.054;8.524;2023-04-03T09:51:54;0.60;;;0.60;;
10029;SDS011;5055;52.054;8.524;2023-04-03T09:57:19;0.50;;;0.50;;
10029;SDS011;5055;52.054;8.524;2023-04-03T09:59:56;0.50;;;0.50;;
10029;SDS011;5055;52.054;8.524;2023-04-03T10:02:31;0.40;;;0.40;;
10029;SDS011;5055;52.054;8.524;2023-04-03T10:05:02;0.43;;;0.43;;
10029;SDS011;5055;52.054;8.524;2023-04-03T10:07:35;0.47;;;0.47;;
10029;SDS011;5055;52.054;8.524;2023-04-03T10:10:19;0.37;;;0.37;;
10029;SDS011;5055;52.054;8.524;2023-04-03T10:13:04;0.40;;;0.40;;
10029;SDS011;5055;52.054;8.524;2023-04-03T10:15:36;0.40;;;0.40;;
10029;SDS011;5055;52.054;8.524;2023-04-03T10:18:14;0.30;;;0.30;;
10029;SDS011;5055;52.054;8.524;2023-04-03T10:20:55;0.40;;;0.40;;
10029;SDS011;5055;52.054;8.524;2023-04-03T10:23:32;0.40;;;0.40;;
10029;SDS011;5055;52.054;8.524;2023-04-03T10:26:10;0.40;;;0.40;;
10029;SDS011;5055;52.054;8.524;2023-04-03T10:28:45;0.40;;;0.40;;
10029;SDS011;5055;52.054;8.524;2023-04-03T10:31:21;0.40;;;0.40;;
10029;SDS011;5055;52.054;8.524;2023-04-03T10:33:59;0.30;;;0.30;;
10029;SDS011;5055;52.054;8.524;2023-04-03T10:36:35;0.50;;;0.50;;
10029;SDS011;5055;52.054;8.524;2023-04-03T10:39:12;0.40;;;0.40;;
10029;SDS011;5055;52.054;8.524;2023-04-03T10:42:00;0.40;;;0.40;;
10029;SDS011;5055;52.054;8.524;2023-04-03T10:44:49;0.20;;;0.20;;
10029;SDS011;5055;52.054;8.524;2023-04-03T10:47:40;0.40;;;0.40;;
10029;SDS011;5055;52.054;8.524;2023-04-03T10:50:22;0.40;;;0.40;;
10029;SDS011;5055;52.054;8.524;2023-04-03T10:53:01;0.30;;;0.30;;
10029;SDS011;5055;52.054;8.524;2023-04-03T10:55:36;0.40;;;0.40;;
10029;SDS011;5055;52.054;8.524;2023-04-03T10:58:08;0.40;;;0.40;;
10029;SDS011;5055;52.054;8.524;2023-04-03T11:00:50;0.50;;;0.50;;
10029;SDS011;5055;52.054;8.524;2023-04-03T11:03:23;0.40;;;0.40;;
10029;SDS011;5055;52.054;8.524;2023-04-03T11:05:59;0.30;;;0.30;;
10029;SDS011;5055;52.054;8.524;2023-04-03T11:08:32;0.30;;;0.30;;
10029;SDS011;5055;52.054;8.524;2023-04-03T11:11:05;0.50;;;0.50;;
10029;SDS011;5055;52.054;8.524;2023-04-03T11:13:38;0.40;;;0.40;;
10029;SDS011;5055;52.054;8.524;2023-04-03T11:16:13;0.40;;;0.40;;
10029;SDS011;5055;52.054;8.524;2023-04-03T11:18:48;0.60;;;0.60;;
10029;SDS011;5055;52.054;8.524;2023-04-03T11:21:19;0.43;;;0.43;;
10029;SDS011;5055;52.054;8.524;2023-04-03T11:23:51;0.40;;;0.40;;
10029;SDS011;5055;52.054;8.524;2023-04-03T11:26:29;0.50;;;0.50;;
10029;SDS011;5055;52.054;8.524;2023-04-03T11:29:04;0.40;;;0.40;;
10029;SDS011;5055;52.054;8.524;2023-04-03T11:31:41;0.47;;;0.47;;
10029;SDS011;5055;52.054;8.524;2023-04-03T11:34:23;0.40;;;0.40;;
10029;SDS011;5055;52.054;8.524;2023-04-03T11:37:00;0.40;;;0.40;;
10029;SDS011;5055;52.054;8.524;2023-04-03T11:39:32;0.40;;;0.40;;
10029;SDS011;5055;52.054;8.524;2023-04-03T11:47:46;0.40;;;0.40;;
10029;SDS011;5055;52.054;8.524;2023-04-03T11:50:37;0.50;;;0.50;;
10029;SDS011;5055;52.054;8.524;2023-04-03T11:53:27;0.40;;;0.40;;
10029;SDS011;5055;52.054;8.524;2023-04-03T11:55:58;0.40;;;0.40;;
10029;SDS011;5055;52.054;8.524;2023-04-03T11:58:32;0.40;;;0.40;;
10029;SDS011;5055;52.054;8.524;2023-04-03T12:01:03;0.40;;;0.40;;
10029;SDS011;5055;52.054;8.524;2023-04-03T12:09:58;0.33;;;0.33;;
10029;SDS011;5055;52.054;8.524;2023-04-03T12:12:35;0.50;;;0.50;;
10029;SDS011;5055;52.054;8.524;2023-04-03T12:22:04;0.40;;;0.40;;
10029;SDS011;5055;52.054;8.524;2023-04-03T12:24:37;0.40;;;0.40;;
10029;SDS011;5055;52.054;8.524;2023-04-03T12:27:16;0.50;;;0.50;;
10029;SDS011;5055;52.054;8.524;2023-04-03T12:29:52;0.30;;;0.30;;
10029;SDS011;5055;52.054;8.524;2023-04-03T12:32:41;0.40;;;0.40;;
10029;SDS011;5055;52.054;8.524;2023-04-03T12:35:39;0.40;;;0.40;;
10029;SDS011;5055;52.054;8.524;2023-04-03T12:38:23;0.40;;;0.40;;
10029;SDS011;5055;52.054;8.524;2023-04-03T12:41:18;0.40;;;0.40;;
10029;SDS011;5055;52.054;8.524;2023-04-03T12:46:49;0.50;;;0.50;;
10029;SDS011;5055;52.054;8.524;2023-04-03T12:49:24;0.40;;;0.40;;
10029;SDS011;5055;52.054;8.524;2023-04-03T12:52:03;0.40;;;0.40;;
10029;SDS011;5055;52.054;8.524;2023-04-03T12:54:35;0.30;;;0.30;;
10029;SDS011;5055;52.054;8.524;2023-04-03T12:57:10;0.40;;;0.40;;
10029;SDS011;5055;52.054;8.524;2023-04-03T12:59:40;0.40;;;0.40;;
10029;SDS011;5055;52.054;8.524;2023-04-03T13:02:15;0.40;;;0.40;;
10029;SDS011;5055;52.054;8.524;2023-04-03T13:04:50;0.33;;;0.33;;
10029;SDS011;5055;52.054;8.524;2023-04-03T13:07:21;0.30;;;0.30;;
10029;SDS011;5055;52.054;8.524;2023-04-03T13:09:55;0.40;;;0.40;;
10029;SDS011;5055;52.054;8.524;2023-04-03T13:12:25;0.30;;;0.30;;
10029;SDS011;5055;52.054;8.524;2023-04-03T13:15:00;0.40;;;0.40;;
10029;SDS011;5055;52.054;8.524;2023-04-03T13:17:30;0.30;;;0.30;;
10029;SDS011;5055;52.054;8.524;2023-04-03T13:20:10;0.30;;;0.30;;
10029;SDS011;5055;52.054;8.524;2023-04-03T13:22:42;0.40;;;0.40;;
10029;SDS011;5055;52.054;8.524;2023-04-03T13:25:16;0.30;;;0.30;;
10029;SDS011;5055;52.054;8.524;2023-04-03T13:27:48;0.30;;;0.30;;
10029;SDS011;5055;52.054;8.524;2023-04-03T13:30:29;0.30;;;0.30;;
10029;SDS011;5055;52.054;8.524;2023-04-03T13:33:00;0.40;;;0.40;;
10029;SDS011;5055;52.054;8.524;2023-04-03T13:35:35;0.30;;;0.30;;
10029;SDS011;5055;52.054;8.524;2023-04-03T13:38:06;0.30;;;0.30;;
10029;SDS011;5055;52.054;8.524;2023-04-03T13:40:50;0.30;;;0.30;;
10029;SDS011;5055;52.054;8.524;2023-04-03T13:43:19;0.33;;;0.33;;
10029;SDS011;5055;52.054;8.524;2023-04-03T13:45:56;0.20;;;0.20;;
10029;SDS011;5055;52.054;8.524;2023-04-03T13:48:35;0.30;;;0.30;;
10029;SDS011;5055;52.054;8.524;2023-04-03T13:51:12;0.30;;;0.30;;
10029;SDS011;5055;52.054;8.524;2023-04-03T13:53:47;0.37;;;0.37;;
10029;SDS011;5055;52.054;8.524;2023-04-03T13:56:23;0.33;;;0.33;;
10029;SDS011;5055;52.054;8.524;2023-04-03T13:59:00;0.30;;;0.30;;
10029;SDS011;5055;52.054;8.524;2023-04-03T14:01:37;0.30;;;0.30;;
10029;SDS011;5055;52.054;8.524;2023-04-03T14:04:13;0.20;;;0.20;;
10029;SDS011;5055;52.054;8.524;2023-04-03T14:06:44;0.30;;;0.30;;
10029;SDS011;5055;52.054;8.524;2023-04-03T14:09:13;0.23;;;0.23;;
10029;SDS011;5055;52.054;8.524;2023-04-03T14:11:43;0.30;;;0.30;;
10029;SDS011;5055;52.054;8.524;2023-04-03T14:14:13;0.30;;;0.30;;
10029;SDS011;5055;52.054;8.524;2023-04-03T14:16:46;0.30;;;0.30;;
10029;SDS011;5055;52.054;8.524;2023-04-03T14:19:20;0.30;;;0.30;;
10029;SDS011;5055;52.054;8.524;2023-04-03T14:21:50;0.33;;;0.33;;
10029;SDS011;5055;52.054;8.524;2023-04-03T14:24:20;0.30;;;0.30;;
10029;SDS011;5055;52.054;8.524;2023-04-03T14:26:49;0.37;;;0.37;;
10029;SDS011;5055;52.054;8.524;2023-04-03T14:29:19;0.30;;;0.30;;
10029;SDS011;5055;52.054;8.524;2023-04-03T14:31:50;0.30;;;0.30;;
10029;SDS011;5055;52.054;8.524;2023-04-03T14:34:37;0.30;;;0.30;;
10029;SDS011;5055;52.054;8.524;2023-04-03T14:37:05;0.30;;;0.30;;
10029;SDS011;5055;52.054;8.524;2023-04-03T14:39:38;0.20;;;0.20;;
10029;SDS011;5055;52.054;8.524;2023-04-03T14:42:11;0.20;;;0.20;;
10029;SDS011;5055;52.054;8.524;2023-04-03T14:44:40;0.20;;;0.20;;
10029;SDS011;5055;52.054;8.524;2023-04-03T14:47:11;0.20;;;0.20;;
10029;SDS011;5055;52.054;8.524;2023-04-03T14:49:56;0.20;;;0.20;;
10029;SDS011;5055;52.054;8.524;2023-04-03T14:52:26;0.20;;;0.20;;
10029;SDS011;5055;52.054;8.524;2023-04-03T14:54:57;0.20;;;0.20;;
10029;SDS011;5055;52.054;8.524;2023-04-03T14:57:27;0.30;;;0.30;;
10029;SDS011;5055;52.054;8.524;2023-04-03T14:59:57;0.20;;;0.20;;
10029;SDS011;5055;52.054;8.524;2023-04-03T15:02:29;0.30;;;0.30;;
10029;SDS011;5055;52.054;8.524;2023-04-03T15:05:00;0.20;;;0.20;;
10029;SDS011;5055;52.054;8.524;2023-04-03T15:07:31;0.30;;;0.30;;
10029;SDS011;5055;52.054;8.524;2023-04-03T15:10:03;0.20;;;0.20;;
10029;SDS011;5055;52.054;8.524;2023-04-03T15:12:41;0.20;;;0.20;;
10029;SDS011;5055;52.054;8.524;2023-04-03T15:15:10;0.20;;;0.20;;
10029;SDS011;5055;52.054;8.524;2023-04-03T15:17:43;0.20;;;0.20;;
10029;SDS011;5055;52.054;8.524;2023-04-03T15:20:13;0.20;;;0.20;;
10029;SDS011;5055;52.054;8.524;2023-04-03T15:22:43;0.20;;;0.20;;
10029;SDS011;5055;52.054;8.524;2023-04-03T15:25:12;0.20;;;0.20;;
10029;SDS011;5055;52.054;8.524;2023-04-03T15:27:40;0.20;;;0.20;;
10029;SDS011;5055;52.054;8.524;2023-04-03T15:30:11;0.20;;;0.20;;
10029;SDS011;5055;52.054;8.524;2023-04-03T15:32:44;0.20;;;0.20;;
10029;SDS011;5055;52.054;8.524;2023-04-03T15:35:14;0.30;;;0.30;;
10029;SDS011;5055;52.054;8.524;2023-04-03T15:37:42;0.20;;;0.20;;
10029;SDS011;5055;52.054;8.524;2023-04-03T15:40:11;0.20;;;0.20;;
10029;SDS011;5055;52.054;8.524;2023-04-03T15:42:40;0.23;;;0.23;;
10029;SDS011;5055;52.054;8.524;2023-04-03T15:45:08;0.20;;;0.20;;
10029;SDS011;5055;52.054;8.524;2023-04-03T15:47:37;0.40;;;0.40;;
10029;SDS011;5055;52.054;8.524;2023-04-03T15:50:08;0.20;;;0.20;;
10029;SDS011;5055;52.054;8.524;2023-04-03T15:52:37;0.30;;;0.30;;
10029;SDS011;5055;52.054;8.524;2023-04-03T15:55:05;0.20;;;0.20;;
10029;SDS011;5055;52.054;8.524;2023-04-03T15:57:34;0.23;;;0.23;;